Time;durP1;ratioP1;P1;durP2;ratioP2;P2;SDS_P1;SDS_P2;PMS_P1;PMS_P2;Temp;Humidity;BMP_temperature;BMP_pressure;BME280_temperature;BME280_humidity;BME280_pressure;Samples;Min_cycle;Max_cycle;Signal;HPM_P1;HPM_P2
2022/07/10 00:01:51;;;;;;;2.08;1.20;;;18.10;99.90;;;;;;5009753;28;20132;-87
2022/07/10 00:04:18;;;;;;;3.67;1.10;;;18.00;99.90;;;;;;5011338;28;20074;-87
2022/07/10 00:06:46;;;;;;;2.25;1.10;;;17.90;99.90;;;;;;5012370;28;20064;-87
2022/07/10 00:09:13;;;;;;;2.65;1.20;;;17.90;99.90;;;;;;5015334;28;20022;-87
2022/07/10 00:11:39;;;;;;;2.83;1.30;;;17.80;99.90;;;;;;5011512;28;20428;-87
2022/07/10 00:14:05;;;;;;;2.95;1.58;;;17.80;99.90;;;;;;5015857;28;20029;-87
2022/07/10 00:16:30;;;;;;;3.40;0.98;;;17.90;99.90;;;;;;5030439;28;20108;-87
2022/07/10 00:18:56;;;;;;;2.17;0.98;;;17.80;99.90;;;;;;5024403;28;20018;-87
2022/07/10 00:21:21;;;;;;;2.45;1.02;;;17.90;99.90;;;;;;5022050;28;20034;-87
2022/07/10 00:23:47;;;;;;;2.72;1.10;;;17.80;99.90;;;;;;5014856;28;20386;-88
2022/07/10 00:26:13;;;;;;;1.98;1.00;;;17.80;99.90;;;;;;5006574;28;20064;-87
2022/07/10 00:28:38;;;;;;;2.72;1.25;;;17.80;99.90;;;;;;5030906;28;20505;-87
2022/07/10 00:31:04;;;;;;;2.40;1.10;;;17.80;99.90;;;;;;5031760;28;20497;-87
2022/07/10 00:33:31;;;;;;;1.92;0.90;;;17.70;99.90;;;;;;5011859;28;20548;-87
2022/07/10 00:35:57;;;;;;;2.40;0.90;;;17.60;99.90;;;;;;5012492;28;20044;-87
2022/07/10 00:38:23;;;;;;;1.80;1.00;;;17.70;99.90;;;;;;5009478;28;20393;-88
2022/07/10 00:40:49;;;;;;;1.88;0.80;;;17.60;99.90;;;;;;5034610;28;20014;-87
2022/07/10 00:43:15;;;;;;;1.90;0.77;;;17.70;99.90;;;;;;5012960;28;20436;-87
2022/07/10 00:45:40;;;;;;;2.35;0.90;;;17.70;99.90;;;;;;5008261;28;20041;-87
2022/07/10 00:48:06;;;;;;;3.20;1.05;;;17.70;99.90;;;;;;4999568;28;20022;-86
2022/07/10 00:50:33;;;;;;;2.70;1.10;;;17.70;99.90;;;;;;5016186;28;20401;-87
2022/07/10 00:52:59;;;;;;;1.98;1.00;;;17.60;99.90;;;;;;5007447;28;20041;-87
2022/07/10 00:55:25;;;;;;;1.95;1.08;;;17.60;99.90;;;;;;5015057;28;20026;-87
2022/07/10 00:57:51;;;;;;;1.75;1.00;;;17.60;99.90;;;;;;4999739;28;20141;-87
2022/07/10 01:00:18;;;;;;;2.42;1.00;;;17.60;99.90;;;;;;5015043;28;20033;-88
2022/07/10 01:02:44;;;;;;;3.15;0.80;;;17.60;99.90;;;;;;5014449;28;20558;-88
2022/07/10 01:05:10;;;;;;;2.28;0.88;;;17.60;99.90;;;;;;5015934;28;20071;-87
2022/07/10 01:07:37;;;;;;;5.22;0.90;;;17.70;99.90;;;;;;5014358;28;20021;-87
2022/07/10 01:10:03;;;;;;;2.60;1.00;;;17.60;99.90;;;;;;5011608;28;20029;-87
2022/07/10 01:12:28;;;;;;;2.80;0.93;;;17.60;99.90;;;;;;5015592;28;20017;-87
2022/07/10 01:14:54;;;;;;;3.30;1.15;;;17.50;99.90;;;;;;5015328;28;20029;-87
2022/07/10 01:17:21;;;;;;;1.73;1.00;;;17.50;99.90;;;;;;5005036;28;20342;-87
2022/07/10 01:19:46;;;;;;;1.70;0.88;;;17.50;99.90;;;;;;5015660;28;20348;-87
2022/07/10 01:22:12;;;;;;;1.52;0.77;;;17.40;99.90;;;;;;5032739;28;20033;-87
2022/07/10 01:24:38;;;;;;;2.03;0.80;;;17.40;99.90;;;;;;5007323;28;20032;-86
2022/07/10 01:27:04;;;;;;;2.15;0.90;;;17.30;99.90;;;;;;5022083;28;20190;-87
2022/07/10 01:29:31;;;;;;;2.83;1.08;;;17.30;99.90;;;;;;5006837;28;20552;-87
2022/07/10 01:31:59;;;;;;;6.38;0.90;;;17.20;99.90;;;;;;5009224;28;20032;-87
2022/07/10 01:34:25;;;;;;;2.08;0.88;;;17.20;99.90;;;;;;5010846;28;20032;-87
2022/07/10 01:36:51;;;;;;;1.48;0.80;;;17.10;99.90;;;;;;5014863;28;20025;-87
2022/07/10 01:39:16;;;;;;;3.00;1.10;;;17.10;99.90;;;;;;5014642;28;20021;-87
2022/07/10 01:41:42;;;;;;;2.92;1.23;;;17.00;99.90;;;;;;5004093;28;20469;-87
2022/07/10 01:44:08;;;;;;;2.95;1.13;;;17.00;99.90;;;;;;5006411;28;20057;-87
2022/07/10 01:46:33;;;;;;;1.52;0.90;;;17.00;99.90;;;;;;5014941;28;20029;-88
2022/07/10 01:48:59;;;;;;;2.95;1.00;;;17.00;99.90;;;;;;5001685;28;20049;-87
2022/07/10 01:51:24;;;;;;;2.30;1.10;;;17.00;99.90;;;;;;5015665;28;20025;-87
2022/07/10 01:53:50;;;;;;;3.20;1.30;;;17.00;99.90;;;;;;5027421;28;20097;-88
2022/07/10 01:56:16;;;;;;;2.25;1.13;;;17.00;99.90;;;;;;5014095;28;20021;-87
2022/07/10 01:58:42;;;;;;;3.13;1.30;;;16.90;99.90;;;;;;5014639;28;20030;-87
2022/07/10 02:01:09;;;;;;;3.50;1.02;;;17.00;99.90;;;;;;5013227;28;20113;-87
2022/07/10 02:06:18;;;;;;;3.08;1.50;;;16.90;99.90;;;;;;5030237;28;20033;-88
2022/07/10 02:08:44;;;;;;;2.30;1.23;;;16.80;99.90;;;;;;5032728;28;20401;-87
2022/07/10 02:11:12;;;;;;;3.13;1.45;;;16.70;99.90;;;;;;5014693;28;20074;-88
2022/07/10 02:13:37;;;;;;;2.80;1.33;;;16.70;99.90;;;;;;5015476;28;20409;-88
2022/07/10 02:16:03;;;;;;;3.08;1.48;;;16.60;99.90;;;;;;5031576;28;20013;-87
2022/07/10 02:18:29;;;;;;;3.50;1.33;;;16.60;99.90;;;;;;5005587;28;20089;-87
2022/07/10 02:20:55;;;;;;;3.55;1.73;;;16.60;99.90;;;;;;5032969;28;20438;-88
2022/07/10 02:23:20;;;;;;;3.45;1.30;;;16.60;99.90;;;;;;5012985;28;20045;-87
2022/07/10 02:25:46;;;;;;;2.80;1.30;;;16.50;99.90;;;;;;5012388;28;20448;-88
2022/07/10 02:28:12;;;;;;;3.55;1.95;;;16.50;99.90;;;;;;5037117;28;20042;-87
2022/07/10 02:30:37;;;;;;;4.88;1.90;;;16.50;99.90;;;;;;5008258;28;20124;-88
2022/07/10 02:33:03;;;;;;;3.08;1.55;;;16.50;99.90;;;;;;5027715;28;20081;-87
2022/07/10 02:35:29;;;;;;;3.45;1.70;;;16.50;99.90;;;;;;5014641;28;20083;-88
2022/07/10 02:37:55;;;;;;;5.18;2.17;;;16.40;99.90;;;;;;5012627;28;20053;-88
2022/07/10 02:40:20;;;;;;;4.22;2.17;;;16.40;99.90;;;;;;5018912;28;20028;-87
2022/07/10 02:42:46;;;;;;;4.68;2.38;;;16.30;99.90;;;;;;5003111;28;20037;-87
2022/07/10 02:45:11;;;;;;;5.80;3.10;;;16.30;99.90;;;;;;5018296;28;20022;-88
2022/07/10 02:47:37;;;;;;;5.75;3.22;;;16.30;99.90;;;;;;5014895;28;20068;-87
2022/07/10 02:50:03;;;;;;;7.40;2.88;;;16.20;99.90;;;;;;5017547;28;20055;-88
2022/07/10 02:52:30;;;;;;;5.85;2.92;;;16.20;99.90;;;;;;5017280;28;20025;-88
2022/07/10 02:54:57;;;;;;;6.85;3.30;;;16.20;99.90;;;;;;5017551;28;20134;-88
2022/07/10 02:57:23;;;;;;;5.88;3.25;;;16.20;99.90;;;;;;5011401;28;20087;-88
2022/07/10 02:59:48;;;;;;;5.32;3.15;;;16.20;99.90;;;;;;5017630;28;20100;-88
2022/07/10 03:02:14;;;;;;;7.35;3.05;;;16.20;99.90;;;;;;5005880;28;20032;-88
2022/07/10 03:04:40;;;;;;;6.07;3.08;;;16.30;99.90;;;;;;5016990;28;20017;-88
2022/07/10 03:07:05;;;;;;;6.25;3.30;;;16.20;99.90;;;;;;5035351;28;20025;-88
2022/07/10 03:09:31;;;;;;;5.80;3.25;;;16.20;99.90;;;;;;5015104;28;20056;-88
2022/07/10 03:11:56;;;;;;;7.72;3.22;;;16.20;99.90;;;;;;5036028;28;20075;-88
2022/07/10 03:14:22;;;;;;;4.70;2.55;;;16.20;99.90;;;;;;5013720;28;20088;-88
2022/07/10 03:16:48;;;;;;;4.88;2.97;;;16.30;99.90;;;;;;5002942;28;20088;-87
2022/07/10 03:19:13;;;;;;;5.68;3.00;;;16.30;99.90;;;;;;5012195;28;20410;-88
2022/07/10 03:21:39;;;;;;;5.80;2.60;;;16.30;99.90;;;;;;5012077;28;20058;-88
2022/07/10 03:24:05;;;;;;;5.85;2.88;;;16.40;99.90;;;;;;5033693;28;20029;-88
2022/07/10 03:26:31;;;;;;;4.55;2.55;;;16.40;99.90;;;;;;5014056;28;20505;-88
2022/07/10 03:28:57;;;;;;;7.47;2.55;;;16.40;99.90;;;;;;5015886;28;20068;-88
2022/07/10 03:31:22;;;;;;;6.30;2.53;;;16.40;99.90;;;;;;5012545;28;20025;-88
2022/07/10 03:33:48;;;;;;;4.60;2.53;;;16.40;99.90;;;;;;5017079;28;20128;-89
2022/07/10 03:36:14;;;;;;;4.85;2.60;;;16.30;99.90;;;;;;5015497;28;20056;-88
2022/07/10 03:38:40;;;;;;;4.57;2.63;;;16.30;99.90;;;;;;5016539;28;20517;-88
2022/07/10 03:41:09;;;;;;;5.28;2.55;;;16.30;99.90;;;;;;5016731;28;20032;-88
2022/07/10 03:43:34;;;;;;;5.00;2.72;;;16.20;99.90;;;;;;5016086;28;20029;-87
2022/07/10 03:46:00;;;;;;;6.10;2.20;;;16.20;99.90;;;;;;5035071;28;20036;-88
2022/07/10 03:48:25;;;;;;;4.43;2.28;;;16.20;99.90;;;;;;5014918;28;20068;-88
2022/07/10 03:50:51;;;;;;;4.80;2.30;;;16.20;99.90;;;;;;5017126;28;20491;-88
2022/07/10 03:53:18;;;;;;;4.60;2.03;;;16.10;99.90;;;;;;5016696;28;20833;-88
2022/07/10 03:55:44;;;;;;;4.10;2.13;;;16.10;99.90;;;;;;5016601;28;20022;-88
2022/07/10 03:58:10;;;;;;;5.65;2.55;;;16.20;99.90;;;;;;5016655;28;20030;-88
2022/07/10 04:00:38;;;;;;;4.38;2.22;;;16.10;99.90;;;;;;5013463;28;20026;-88
2022/07/10 04:03:05;;;;;;;4.65;2.63;;;16.00;99.90;;;;;;5000371;28;20033;-87
2022/07/10 04:05:32;;;;;;;5.38;2.08;;;16.00;99.90;;;;;;5030167;28;20086;-90
2022/07/10 04:07:59;;;;;;;5.30;2.53;;;16.00;99.90;;;;;;5015898;28;20025;-87
2022/07/10 04:10:25;;;;;;;3.63;1.90;;;15.90;99.90;;;;;;5016857;28;20026;-88
2022/07/10 04:12:51;;;;;;;5.25;2.63;;;15.90;99.90;;;;;;5029178;28;20026;-87
2022/07/10 04:15:17;;;;;;;6.40;3.30;;;15.90;99.90;;;;;;5017999;28;20552;-87
2022/07/10 04:17:43;;;;;;;4.35;2.28;;;15.90;99.90;;;;;;5012888;28;20032;-87
2022/07/10 04:20:09;;;;;;;4.68;2.42;;;15.90;99.90;;;;;;5014124;28;20021;-87
2022/07/10 04:22:35;;;;;;;5.15;2.00;;;15.90;99.90;;;;;;5005505;28;20052;-87
2022/07/10 04:25:02;;;;;;;4.63;2.22;;;15.90;99.90;;;;;;5012739;28;20025;-87
2022/07/10 04:27:28;;;;;;;6.20;3.00;;;15.90;99.90;;;;;;5009970;28;20028;-87
2022/07/10 04:29:54;;;;;;;7.32;2.78;;;15.90;99.90;;;;;;5032347;28;20060;-87
2022/07/10 04:32:20;;;;;;;5.03;2.30;;;15.90;99.90;;;;;;5013524;28;20108;-88
2022/07/10 04:34:45;;;;;;;4.93;2.72;;;15.90;99.90;;;;;;5031919;28;20034;-88
2022/07/10 04:37:11;;;;;;;4.80;2.28;;;15.90;99.90;;;;;;5031901;28;20029;-87
2022/07/10 04:39:38;;;;;;;5.75;2.78;;;15.90;99.90;;;;;;5028508;28;20025;-87
2022/07/10 04:42:08;;;;;;;4.03;2.10;;;15.90;99.90;;;;;;5008052;28;20029;-88
2022/07/10 04:44:34;;;;;;;6.43;2.60;;;15.90;99.90;;;;;;5031064;28;20091;-88
2022/07/10 04:46:59;;;;;;;5.18;2.53;;;15.90;99.90;;;;;;5027167;28;20022;-88
2022/07/10 04:49:25;;;;;;;4.63;2.35;;;15.80;99.90;;;;;;5010589;28;20029;-87
2022/07/10 04:51:51;;;;;;;4.57;2.15;;;15.90;99.90;;;;;;5030663;28;20037;-87
2022/07/10 04:54:17;;;;;;;3.83;2.03;;;15.90;99.90;;;;;;5011412;28;20030;-88
2022/07/10 04:56:43;;;;;;;4.25;2.30;;;15.90;99.90;;;;;;5013748;28;20117;-88
2022/07/10 04:59:09;;;;;;;3.20;1.70;;;16.00;99.90;;;;;;5003889;28;20029;-87
2022/07/10 05:01:35;;;;;;;3.55;1.92;;;15.90;99.90;;;;;;5001016;28;20048;-86
2022/07/10 05:04:01;;;;;;;4.80;2.15;;;15.90;99.90;;;;;;5011752;28;20086;-88
2022/07/10 05:06:27;;;;;;;4.70;1.85;;;15.90;99.90;;;;;;5010694;28;20029;-87
2022/07/10 05:08:53;;;;;;;4.25;2.00;;;16.10;99.90;;;;;;5000278;28;20053;-88
2022/07/10 05:11:19;;;;;;;4.20;1.67;;;15.90;99.90;;;;;;5002419;28;20599;-88
2022/07/10 05:13:46;;;;;;;2.65;1.40;;;16.00;99.90;;;;;;5007817;28;20113;-88
2022/07/10 05:18:37;;;;;;;4.53;1.52;;;15.90;99.90;;;;;;5079219;22;20398;-90
2022/07/10 05:21:03;;;;;;;3.70;2.22;;;16.00;99.90;;;;;;5050030;28;20163;-88
2022/07/10 05:23:29;;;;;;;4.05;1.80;;;15.90;99.90;;;;;;5052050;28;20023;-91
2022/07/10 05:25:54;;;;;;;4.00;1.67;;;15.90;99.90;;;;;;5052908;28;20063;-90
2022/07/10 05:28:20;;;;;;;5.00;1.48;;;15.90;99.90;;;;;;5041278;28;20102;-90
2022/07/10 05:30:46;;;;;;;3.45;1.63;;;15.90;99.90;;;;;;5043961;28;20129;-90
2022/07/10 05:33:15;;;;;;;3.33;1.58;;;15.90;99.90;;;;;;5050927;28;20025;-90
2022/07/10 05:35:40;;;;;;;3.53;1.55;;;15.90;99.90;;;;;;5052902;28;20036;-89
2022/07/10 05:38:09;;;;;;;3.35;1.42;;;15.90;99.90;;;;;;5044797;28;20029;-90
2022/07/10 05:40:38;;;;;;;4.03;1.52;;;15.90;99.90;;;;;;5061061;28;20035;-90
2022/07/10 05:43:10;;;;;;;2.33;1.30;;;15.90;99.90;;;;;;5065020;28;20043;-89
2022/07/10 05:45:36;;;;;;;2.33;1.00;;;15.90;99.90;;;;;;5045956;28;20500;-90
2022/07/10 05:48:02;;;;;;;1.48;0.75;;;16.10;99.90;;;;;;5043535;28;20028;-90
2022/07/10 05:50:27;;;;;;;1.95;0.95;;;16.40;99.90;;;;;;5070475;28;20021;-89
2022/07/10 05:52:53;;;;;;;1.55;0.80;;;16.50;99.90;;;;;;5052439;28;20451;-89
2022/07/10 05:55:21;;;;;;;2.28;1.00;;;16.40;99.90;;;;;;5058386;28;20119;-89
2022/07/10 05:57:47;;;;;;;1.00;0.63;;;16.40;99.90;;;;;;5052340;28;20029;-90
2022/07/10 06:00:18;;;;;;;6.00;1.63;;;16.30;99.90;;;;;;5058949;28;20035;-89
2022/07/10 06:02:44;;;;;;;3.28;1.30;;;16.40;99.90;;;;;;5052600;28;20480;-90
2022/07/10 06:05:12;;;;;;;2.17;0.80;;;16.40;99.90;;;;;;5067701;28;20035;-89
2022/07/10 06:07:37;;;;;;;3.10;0.80;;;16.40;99.90;;;;;;5068971;28;20056;-88
2022/07/10 06:10:05;;;;;;;1.73;0.93;;;16.30;99.90;;;;;;5048858;28;20048;-89
2022/07/10 06:12:31;;;;;;;1.20;0.60;;;16.30;99.90;;;;;;5064261;28;20017;-89
2022/07/10 06:14:57;;;;;;;2.03;0.80;;;16.30;99.90;;;;;;5047476;28;20021;-90
2022/07/10 06:17:22;;;;;;;1.30;0.68;;;16.40;99.90;;;;;;5071257;28;20031;-89
2022/07/10 06:19:48;;;;;;;1.33;0.60;;;16.30;99.90;;;;;;5052986;28;20024;-89
2022/07/10 06:22:32;;;;;;;1.92;0.57;;;16.40;99.90;;;;;;5047820;28;20032;-90
2022/07/10 06:25:05;;;;;;;1.60;0.68;;;16.50;99.90;;;;;;5052840;28;20070;-89
2022/07/10 06:27:31;;;;;;;1.35;0.47;;;16.50;99.90;;;;;;5042109;28;20033;-89
2022/07/10 06:29:57;;;;;;;1.02;0.50;;;16.50;99.90;;;;;;5053180;28;20130;-89
2022/07/10 06:32:24;;;;;;;0.60;0.40;;;16.60;99.90;;;;;;5055599;28;20115;-87
2022/07/10 06:34:51;;;;;;;1.85;0.50;;;16.80;99.90;;;;;;5049393;28;20112;-89
2022/07/10 06:37:17;;;;;;;1.27;0.50;;;16.90;99.90;;;;;;5057167;28;20123;-89
2022/07/10 06:39:44;;;;;;;3.38;0.82;;;17.10;99.90;;;;;;5047518;28;20071;-89
2022/07/10 06:42:09;;;;;;;1.48;0.60;;;17.30;99.90;;;;;;5041879;28;20029;-89
2022/07/10 06:44:35;;;;;;;1.05;0.47;;;17.20;99.90;;;;;;5056828;28;20077;-89
2022/07/10 06:49:49;;;;;;;1.60;0.50;;;17.10;99.90;;;;;;5070915;28;20469;-89
2022/07/10 06:52:15;;;;;;;1.60;0.57;;;17.00;99.90;;;;;;5062782;28;20028;-89
2022/07/10 06:54:41;;;;;;;1.58;0.60;;;16.80;99.90;;;;;;5046540;28;20071;-87
2022/07/10 06:57:06;;;;;;;1.23;0.52;;;16.80;99.90;;;;;;5050289;28;20063;-89
2022/07/10 06:59:32;;;;;;;0.88;0.40;;;16.90;99.90;;;;;;5046998;28;20028;-89
2022/07/10 07:01:58;;;;;;;4.68;0.70;;;17.00;99.90;;;;;;5068681;28;20496;-88
2022/07/10 07:04:26;;;;;;;2.15;0.50;;;17.00;99.90;;;;;;5041959;28;20540;-89
2022/07/10 07:06:52;;;;;;;3.38;0.50;;;16.90;99.90;;;;;;5042398;28;20033;-89
2022/07/10 07:09:17;;;;;;;0.95;0.45;;;17.00;99.90;;;;;;5053247;28;20024;-88
2022/07/10 07:11:43;;;;;;;2.08;0.70;;;17.10;99.90;;;;;;5050069;28;20035;-89
2022/07/10 07:14:09;;;;;;;1.70;0.65;;;17.10;99.90;;;;;;5068937;28;20033;-88
2022/07/10 07:16:45;;;;;;;4.10;0.88;;;17.40;99.90;;;;;;5056658;28;20037;-89
2022/07/10 07:19:17;;;;;;;1.70;0.38;;;17.50;99.90;;;;;;5068809;28;20037;-89
2022/07/10 07:24:27;;;;;;;1.40;0.60;;;17.40;99.90;;;;;;5070566;28;20083;-88
2022/07/10 07:26:53;;;;;;;2.35;0.60;;;17.40;99.90;;;;;;5066320;28;20024;-89
2022/07/10 07:29:19;;;;;;;3.13;0.63;;;17.20;99.90;;;;;;5071367;28;20032;-89
2022/07/10 07:31:44;;;;;;;1.13;0.50;;;17.40;99.90;;;;;;5071182;28;20028;-89
2022/07/10 07:34:11;;;;;;;0.85;0.50;;;17.50;99.90;;;;;;5055515;28;20036;-89
2022/07/10 07:36:37;;;;;;;0.82;0.40;;;17.60;99.90;;;;;;5053042;28;20024;-90
2022/07/10 07:39:03;;;;;;;0.98;0.40;;;17.40;99.90;;;;;;5060463;28;20021;-88
2022/07/10 07:41:29;;;;;;;2.00;0.80;;;17.30;99.90;;;;;;5079290;28;20023;-90
2022/07/10 07:43:55;;;;;;;0.95;0.40;;;17.40;99.90;;;;;;5044455;28;20130;-90
2022/07/10 07:46:21;;;;;;;1.35;0.60;;;17.30;99.90;;;;;;5067033;28;20114;-88
2022/07/10 07:48:46;;;;;;;2.08;0.40;;;17.30;99.90;;;;;;5054697;28;20035;-89
2022/07/10 07:51:13;;;;;;;1.17;0.47;;;17.40;99.90;;;;;;5057864;28;20059;-89
2022/07/10 07:53:39;;;;;;;1.10;0.47;;;17.20;99.90;;;;;;5076131;28;20030;-89
2022/07/10 07:56:05;;;;;;;1.30;0.60;;;17.20;99.90;;;;;;5046301;28;20391;-89
2022/07/10 07:58:30;;;;;;;2.33;0.43;;;17.20;99.90;;;;;;5046361;28;20044;-90
2022/07/10 08:00:56;;;;;;;2.10;0.70;;;17.30;99.90;;;;;;5038878;28;20477;-89
2022/07/10 08:03:22;;;;;;;1.67;0.43;;;17.50;99.90;;;;;;5052106;28;20063;-89
2022/07/10 08:05:49;;;;;;;0.95;0.40;;;17.50;99.90;;;;;;5045632;28;20032;-89
2022/07/10 08:08:15;;;;;;;2.70;0.77;;;17.60;99.90;;;;;;5058036;28;20020;-89
2022/07/10 08:10:41;;;;;;;1.55;0.40;;;17.60;99.90;;;;;;5047439;28;20063;-89
2022/07/10 08:13:06;;;;;;;1.20;0.40;;;17.80;99.90;;;;;;5049515;28;20488;-89
2022/07/10 08:15:34;;;;;;;1.38;0.40;;;17.80;99.90;;;;;;5067654;28;20400;-89
2022/07/10 08:18:00;;;;;;;1.20;0.40;;;17.70;99.90;;;;;;5044539;28;20405;-90
2022/07/10 08:20:30;;;;;;;1.85;0.40;;;17.70;99.90;;;;;;5044431;28;20017;-89
2022/07/10 08:22:56;;;;;;;0.88;0.40;;;17.80;99.90;;;;;;5069497;28;20016;-90
2022/07/10 08:25:22;;;;;;;1.90;0.47;;;17.80;99.90;;;;;;5070912;28;20059;-89
2022/07/10 08:27:47;;;;;;;1.73;0.40;;;17.60;99.90;;;;;;5039628;28;20489;-88
2022/07/10 08:30:13;;;;;;;1.10;0.40;;;17.40;99.90;;;;;;5044175;28;20039;-90
2022/07/10 08:32:40;;;;;;;2.75;0.40;;;17.40;99.90;;;;;;5048476;28;20489;-89
2022/07/10 08:35:07;;;;;;;0.55;0.30;;;17.50;99.90;;;;;;5066173;28;20029;-90
2022/07/10 08:37:40;;;;;;;1.17;0.40;;;17.90;99.90;;;;;;5055139;28;20024;-89
2022/07/10 08:40:09;;;;;;;1.73;0.70;;;18.00;99.90;;;;;;5069877;28;20074;-89
2022/07/10 08:42:35;;;;;;;1.65;0.57;;;18.40;99.90;;;;;;5038296;28;20025;-89
2022/07/10 08:45:01;;;;;;;1.90;0.88;;;18.50;99.90;;;;;;5050390;28;20027;-89
2022/07/10 08:47:30;;;;;;;1.25;0.55;;;18.60;99.90;;;;;;5050692;28;20031;-89
2022/07/10 08:49:56;;;;;;;1.02;0.30;;;18.40;99.90;;;;;;5063325;28;20092;-89
2022/07/10 08:52:55;;;;;;;0.82;0.35;;;18.30;99.90;;;;;;5063859;28;20036;-89
2022/07/10 08:55:25;;;;;;;1.13;0.50;;;18.60;99.90;;;;;;5058852;28;20013;-89
2022/07/10 08:57:54;;;;;;;0.85;0.30;;;18.50;99.90;;;;;;5064344;28;20425;-89
2022/07/10 09:00:20;;;;;;;0.88;0.30;;;18.60;99.90;;;;;;5041668;28;20156;-90
2022/07/10 09:02:46;;;;;;;1.48;0.30;;;18.70;99.90;;;;;;5040410;28;20524;-90
2022/07/10 09:05:14;;;;;;;1.58;0.52;;;19.00;99.90;;;;;;5060026;28;20445;-89
2022/07/10 09:07:43;;;;;;;3.28;0.30;;;19.00;99.90;;;;;;5050755;28;20021;-90
2022/07/10 09:10:11;;;;;;;1.73;0.40;;;18.60;99.90;;;;;;5053375;28;20724;-90
2022/07/10 09:13:11;;;;;;;0.95;0.40;;;18.60;99.90;;;;;;5070132;28;20390;-89
2022/07/10 09:15:37;;;;;;;2.15;0.32;;;19.20;99.90;;;;;;4991059;28;20030;-90
2022/07/10 09:18:08;;;;;;;1.52;0.30;;;18.90;99.90;;;;;;5045129;28;20140;-90
2022/07/10 09:20:38;;;;;;;0.73;0.30;;;19.20;99.90;;;;;;5042707;28;20433;-90
2022/07/10 09:23:22;;;;;;;0.75;0.40;;;19.00;99.80;;;;;;5041491;28;20102;-89
2022/07/10 09:25:51;;;;;;;1.23;0.45;;;19.00;99.60;;;;;;5070681;28;20035;-88
2022/07/10 09:28:18;;;;;;;2.72;0.40;;;19.10;99.40;;;;;;5059964;28;20028;-89
2022/07/10 09:30:45;;;;;;;1.75;0.35;;;19.10;99.60;;;;;;5059890;28;20110;-89
2022/07/10 09:33:31;;;;;;;2.15;0.30;;;19.60;98.80;;;;;;5062451;28;20020;-89
2022/07/10 09:36:05;;;;;;;0.20;0.20;;;19.50;98.60;;;;;;5042321;28;20029;-89
2022/07/10 09:38:39;;;;;;;0.70;0.40;;;19.60;98.90;;;;;;5060265;28;20028;-89
2022/07/10 09:41:30;;;;;;;1.98;0.40;;;19.70;97.80;;;;;;5048228;28;20443;-89
2022/07/10 09:43:57;;;;;;;2.30;0.50;;;19.50;97.80;;;;;;5070257;28;20504;-88
2022/07/10 09:46:33;;;;;;;1.00;0.20;;;19.40;98.00;;;;;;5062280;28;20104;-89
2022/07/10 09:49:12;;;;;;;0.82;0.35;;;19.40;97.90;;;;;;5064325;28;20016;-89
2022/07/10 09:51:37;;;;;;;0.85;0.40;;;19.60;98.30;;;;;;5050097;28;20017;-89
2022/07/10 09:54:05;;;;;;;2.15;0.30;;;19.60;98.40;;;;;;5049424;28;20021;-89
2022/07/10 09:56:47;;;;;;;0.55;0.30;;;19.50;97.70;;;;;;5059718;28;20017;-88
2022/07/10 09:59:16;;;;;;;3.20;0.30;;;19.30;98.00;;;;;;5070869;28;20444;-88
2022/07/10 10:01:47;;;;;;;0.85;0.30;;;19.10;98.40;;;;;;5066140;28;20531;-89
2022/07/10 10:04:23;;;;;;;0.20;0.20;;;19.10;98.00;;;;;;5042491;28;20017;-89
2022/07/10 10:06:56;;;;;;;0.80;0.57;;;19.30;97.90;;;;;;5063668;28;20523;-88
2022/07/10 10:09:25;;;;;;;0.85;0.30;;;19.90;97.30;;;;;;5060404;28;20115;-89
2022/07/10 10:12:02;;;;;;;1.20;0.28;;;19.90;97.10;;;;;;5045647;28;20021;-90
2022/07/10 10:14:28;;;;;;;0.47;0.20;;;19.90;96.70;;;;;;5047395;28;20020;-90
2022/07/10 10:16:58;;;;;;;0.70;0.30;;;19.80;96.70;;;;;;5042951;28;20397;-88
2022/07/10 10:22:17;;;;;;;1.10;0.50;;;19.60;97.00;;;;;;5064281;28;20044;-89
2022/07/10 10:24:45;;;;;;;0.73;0.30;;;19.80;96.50;;;;;;5064691;28;20030;-90
2022/07/10 10:27:11;;;;;;;0.70;0.30;;;20.10;96.50;;;;;;5038202;28;20032;-89
2022/07/10 10:29:38;;;;;;;2.03;0.32;;;20.40;95.70;;;;;;5057012;28;20028;-89
2022/07/10 10:32:05;;;;;;;1.80;0.28;;;20.60;95.30;;;;;;5044277;28;20048;-88
2022/07/10 10:34:42;;;;;;;0.80;0.30;;;20.20;95.20;;;;;;5058817;28;20025;-89
2022/07/10 10:37:27;;;;;;;0.40;0.25;;;20.50;95.00;;;;;;5037324;28;20037;-89
2022/07/10 10:39:56;;;;;;;0.82;0.30;;;20.70;94.10;;;;;;5061670;28;20033;-89
2022/07/10 10:42:43;;;;;;;1.65;0.50;;;20.90;94.30;;;;;;5060853;28;20017;-89
2022/07/10 10:45:27;;;;;;;1.10;0.30;;;21.00;94.10;;;;;;5076170;28;20057;-88
2022/07/10 10:48:10;;;;;;;1.85;0.30;;;21.30;93.30;;;;;;5063735;28;20016;-89
2022/07/10 10:50:38;;;;;;;2.72;0.30;;;21.00;93.50;;;;;;5066480;28;20105;-89
2022/07/10 10:53:05;;;;;;;1.98;0.20;;;20.80;93.50;;;;;;5058227;28;20115;-90
2022/07/10 10:55:34;;;;;;;0.85;0.15;;;20.40;94.60;;;;;;5061712;28;20381;-89
2022/07/10 10:58:20;;;;;;;0.70;0.30;;;20.60;93.50;;;;;;5050083;28;20063;-89
2022/07/10 11:01:19;;;;;;;0.60;0.30;;;20.50;93.10;;;;;;5050282;28;20020;-89
2022/07/10 11:04:12;;;;;;;0.90;0.28;;;20.50;93.80;;;;;;5037634;28;20041;-90
2022/07/10 11:06:53;;;;;;;1.95;0.30;;;20.80;93.30;;;;;;5052745;28;20017;-89
2022/07/10 11:09:29;;;;;;;1.55;0.25;;;20.90;93.30;;;;;;5049801;28;20023;-90
2022/07/10 11:12:03;;;;;;;0.38;0.20;;;21.20;92.80;;;;;;5064320;28;20535;-89
2022/07/10 11:14:31;;;;;;;0.68;0.30;;;21.40;92.70;;;;;;5064885;28;20028;-89
2022/07/10 11:19:31;;;;;;;0.73;0.20;;;21.20;92.70;;;;;;5065533;28;20106;-88
2022/07/10 11:22:06;;;;;;;0.75;0.30;;;21.30;92.90;;;;;;5069428;28;20384;-89
2022/07/10 11:25:19;;;;;;;1.27;0.22;;;21.60;92.50;;;;;;5072225;28;20027;-87
2022/07/10 11:28:09;;;;;;;2.60;0.93;;;21.60;91.90;;;;;;5060720;28;20033;-88
2022/07/10 11:30:54;;;;;;;0.73;0.20;;;21.40;92.20;;;;;;5067452;28;20029;-88
2022/07/10 11:33:21;;;;;;;1.05;0.20;;;21.70;92.10;;;;;;5067350;28;20093;-89
2022/07/10 11:35:48;;;;;;;1.23;0.50;;;21.50;92.00;;;;;;5068225;28;20033;-88
2022/07/10 11:38:20;;;;;;;0.30;0.10;;;21.80;91.20;;;;;;5071219;28;20041;-89
2022/07/10 11:40:45;;;;;;;0.88;0.30;;;22.40;91.10;;;;;;5068894;28;20020;-87
2022/07/10 11:43:14;;;;;;;0.52;0.20;;;23.10;90.10;;;;;;5073434;28;20028;-88
2022/07/10 11:45:40;;;;;;;2.38;0.30;;;23.20;89.10;;;;;;5066973;28;20028;-88
2022/07/10 11:48:08;;;;;;;0.57;0.20;;;23.30;87.50;;;;;;5065046;28;20502;-88
2022/07/10 11:50:38;;;;;;;3.28;0.60;;;23.30;87.00;;;;;;5071396;28;20037;-88
2022/07/10 11:53:05;;;;;;;0.60;0.20;;;23.30;85.30;;;;;;5068582;28;20033;-89
2022/07/10 11:55:36;;;;;;;0.15;0.10;;;23.30;85.60;;;;;;5069231;28;20104;-88
2022/07/10 11:58:12;;;;;;;;;;;23.80;85.00;;;;;;5073011;28;20028;-89
2022/07/10 12:00:37;;;;;;;0.25;0.10;;;24.20;83.10;;;;;;5070318;28;19904;-89
2022/07/10 12:03:40;;;;;;;0.60;0.10;;;24.50;84.40;;;;;;5061105;28;20040;-90
2022/07/10 12:06:07;;;;;;;1.77;0.40;;;24.50;83.10;;;;;;5028974;28;20040;-88
2022/07/10 12:08:47;;;;;;;2.28;0.40;;;24.10;82.90;;;;;;5069577;28;20068;-89
2022/07/10 12:11:21;;;;;;;1.55;0.20;;;23.20;83.10;;;;;;5069194;28;20037;-87
2022/07/10 12:13:49;;;;;;;0.88;0.10;;;23.40;84.80;;;;;;5071585;28;20016;-87
2022/07/10 12:16:15;;;;;;;0.77;0.17;;;23.40;83.50;;;;;;5058047;28;20078;-89
2022/07/10 12:18:41;;;;;;;0.77;0.30;;;23.50;82.90;;;;;;5065960;28;20374;-89
2022/07/10 12:21:09;;;;;;;1.45;0.47;;;23.90;82.20;;;;;;5073673;28;20036;-89
2022/07/10 12:23:38;;;;;;;1.45;0.30;;;24.20;80.60;;;;;;5070472;28;20089;-90
2022/07/10 12:26:12;;;;;;;0.73;0.10;;;24.30;80.70;;;;;;5062700;28;20029;-89
2022/07/10 12:28:58;;;;;;;0.95;0.20;;;24.30;80.20;;;;;;5071643;28;20028;-89
2022/07/10 12:31:27;;;;;;;1.80;0.35;;;24.10;79.70;;;;;;5070480;28;20122;-90
2022/07/10 12:34:06;;;;;;;1.25;0.30;;;24.10;80.40;;;;;;5050965;28;20036;-89
2022/07/10 12:36:44;;;;;;;1.85;0.30;;;24.30;78.60;;;;;;5087710;28;20021;-87
2022/07/10 12:39:21;;;;;;;0.98;0.10;;;23.80;77.20;;;;;;5070754;28;20028;-89
2022/07/10 12:41:57;;;;;;;1.75;0.17;;;23.60;76.60;;;;;;5070263;28;20027;-90
2022/07/10 12:44:40;;;;;;;0.63;0.20;;;24.00;76.80;;;;;;5077275;28;20021;-90
2022/07/10 12:47:14;;;;;;;0.60;0.10;;;24.10;77.90;;;;;;5067080;28;20029;-88
2022/07/10 12:49:55;;;;;;;1.75;0.15;;;24.40;76.30;;;;;;5079382;28;20031;-89
2022/07/10 12:52:25;;;;;;;1.00;0.10;;;24.80;76.40;;;;;;5072410;28;20052;-89
2022/07/10 12:55:13;;;;;;;0.30;0.10;;;25.10;74.70;;;;;;5071865;28;20104;-89
2022/07/10 12:58:04;;;;;;;0.95;0.20;;;25.30;72.90;;;;;;5072694;28;20055;-90
2022/07/10 13:00:34;;;;;;;0.40;0.10;;;25.40;71.60;;;;;;5077736;28;20047;-90
2022/07/10 13:03:10;;;;;;;0.68;0.10;;;25.30;72.10;;;;;;5072978;28;20078;-90
2022/07/10 13:05:44;;;;;;;0.98;0.10;;;25.90;71.90;;;;;;5079075;28;20046;-89
2022/07/10 13:08:25;;;;;;;1.70;0.20;;;26.00;72.90;;;;;;5073560;28;20072;-92
2022/07/10 13:10:59;;;;;;;0.50;0.10;;;26.00;71.90;;;;;;5074148;28;20025;-90
2022/07/10 13:13:30;;;;;;;0.50;0.10;;;25.90;70.70;;;;;;5076638;28;20067;-91